createdAt,value
2022-10-01T00:00:15.540Z,13.45
2022-10-01T00:03:20.086Z,13.46
2022-10-01T00:06:22.780Z,13.41
2022-10-01T00:09:26.763Z,13.61
2022-10-01T00:12:29.284Z,13.61
2022-10-01T00:15:32.674Z,13.62
2022-10-01T00:18:40.027Z,13.53
2022-10-01T00:21:42.914Z,13.64
2022-10-01T00:24:47.369Z,13.54
2022-10-01T00:27:50.469Z,13.43
2022-10-01T00:30:53.076Z,13.47
2022-10-01T00:34:00.985Z,13.48
2022-10-01T00:37:04.680Z,13.60
2022-10-01T00:40:08.432Z,13.70
2022-10-01T00:43:25.924Z,13.57
2022-10-01T00:46:33.259Z,13.63
2022-10-01T00:49:37.938Z,13.72
2022-10-01T00:52:42.057Z,13.57
2022-10-01T00:55:51.862Z,13.64
2022-10-01T00:58:56.076Z,13.83
2022-10-01T01:01:59.861Z,13.76
2022-10-01T01:05:04.206Z,13.83
2022-10-01T01:08:08.839Z,13.77
2022-10-01T01:11:21.562Z,13.83
2022-10-01T01:14:56.163Z,13.89
2022-10-01T01:18:20.205Z,13.92
2022-10-01T01:21:37.207Z,13.78
2022-10-01T01:24:55.967Z,13.81
2022-10-01T01:27:58.482Z,13.76
2022-10-01T01:31:08.265Z,13.78
2022-10-01T01:34:13.135Z,13.55
2022-10-01T01:37:20.493Z,13.47
2022-10-01T01:40:25.400Z,13.57
2022-10-01T01:43:35.721Z,13.44
2022-10-01T01:46:43.543Z,13.53
2022-10-01T01:49:46.672Z,13.59
2022-10-01T01:52:49.206Z,13.55
2022-10-01T01:55:53.338Z,13.60
2022-10-01T01:58:57.400Z,13.67
2022-10-01T02:02:00.663Z,13.55
2022-10-01T02:05:08.891Z,13.66
2022-10-01T02:08:16.187Z,13.70
2022-10-01T02:11:28.731Z,13.65
2022-10-01T02:14:50.321Z,13.60
2022-10-01T02:18:22.251Z,13.65
2022-10-01T02:21:40.122Z,13.40
2022-10-01T02:24:58.504Z,13.48
2022-10-01T02:28:11.187Z,13.54
2022-10-01T02:31:15.727Z,13.51
2022-10-01T02:34:22.858Z,13.39
2022-10-01T02:37:27.695Z,13.34
2022-10-01T02:40:34.055Z,13.38
2022-10-01T02:43:47.250Z,13.48
2022-10-01T02:46:52.429Z,13.31
2022-10-01T02:49:55.440Z,13.40
2022-10-01T02:53:13.504Z,13.41
2022-10-01T02:56:36.714Z,13.42
2022-10-01T02:59:39.340Z,13.44
2022-10-01T03:02:42.332Z,13.44
2022-10-01T03:05:44.928Z,13.45
2022-10-01T03:08:47.720Z,13.49
2022-10-01T03:11:50.304Z,13.45
2022-10-01T03:14:53.813Z,13.47
2022-10-01T03:17:56.339Z,13.51
2022-10-01T03:20:59.405Z,13.42
2022-10-01T03:24:02.221Z,13.36
2022-10-01T03:27:05.312Z,13.40
2022-10-01T03:30:08.502Z,13.32
2022-10-01T03:33:13.866Z,13.47
2022-10-01T03:36:16.662Z,13.48
2022-10-01T03:39:19.619Z,13.49
2022-10-01T03:42:22.216Z,13.61
2022-10-01T03:45:25.074Z,13.52
2022-10-01T03:48:28.888Z,13.69
2022-10-01T03:51:32.549Z,13.54
2022-10-01T03:54:35.417Z,13.54
2022-10-01T03:57:38.300Z,13.52
2022-10-01T04:00:41.753Z,13.43
2022-10-01T04:03:44.698Z,13.50
2022-10-01T04:06:47.339Z,13.58
2022-10-01T04:09:51.139Z,13.61
2022-10-01T04:12:55.587Z,13.48
2022-10-01T04:15:58.580Z,13.44
2022-10-01T04:19:01.290Z,13.44
2022-10-01T04:22:04.079Z,13.56
2022-10-01T04:25:11.539Z,13.60
2022-10-01T04:28:15.055Z,13.53
2022-10-01T04:31:26.952Z,13.55
2022-10-01T04:34:49.052Z,13.64
2022-10-01T04:38:01.913Z,13.50
2022-10-01T04:41:04.803Z,13.59
2022-10-01T04:44:07.307Z,13.60
2022-10-01T04:47:10.423Z,13.57
2022-10-01T04:50:13.028Z,13.57
2022-10-01T04:53:21.451Z,13.53
2022-10-01T04:56:23.934Z,13.59
2022-10-01T04:59:26.795Z,13.54
2022-10-01T05:02:33.321Z,13.61
2022-10-01T05:05:36.624Z,13.63
2022-10-01T05:08:39.342Z,13.71
2022-10-01T05:11:42.345Z,13.60
2022-10-01T05:14:44.760Z,13.65
2022-10-01T05:17:47.613Z,13.55
2022-10-01T05:20:50.100Z,13.51
2022-10-01T05:23:53.190Z,13.64
2022-10-01T05:26:55.909Z,13.57
2022-10-01T05:29:58.755Z,13.57
2022-10-01T05:33:04.960Z,13.71
2022-10-01T05:36:07.734Z,13.85
2022-10-01T05:39:10.897Z,13.64
2022-10-01T05:42:15.059Z,13.62
2022-10-01T05:45:20.069Z,13.59
2022-10-01T05:48:22.936Z,13.75
2022-10-01T05:51:25.853Z,13.77
2022-10-01T05:54:29.633Z,13.88
2022-10-01T05:57:32.232Z,13.78
2022-10-01T06:00:35.977Z,13.73
2022-10-01T06:03:39.171Z,13.64
2022-10-01T06:06:42.036Z,13.62
2022-10-01T06:09:45.261Z,13.63
2022-10-01T06:12:48.660Z,13.69
2022-10-01T06:15:52.843Z,13.89
2022-10-01T06:18:57.627Z,13.88
2022-10-01T06:22:00.640Z,13.85
2022-10-01T06:25:03.363Z,13.76
2022-10-01T06:28:11.892Z,13.89
2022-10-01T06:31:14.457Z,13.78
2022-10-01T06:34:17.365Z,13.90
2022-10-01T06:37:19.873Z,13.91
2022-10-01T06:40:29.941Z,14.02
2022-10-01T06:43:33.711Z,14.05
2022-10-01T06:46:37.613Z,13.93
2022-10-01T06:49:40.291Z,14.04
2022-10-01T06:52:49.380Z,14.18
2022-10-01T06:55:55.565Z,14.06
2022-10-01T06:58:58.804Z,14.08
2022-10-01T07:02:05.592Z,14.02
2022-10-01T07:05:09.432Z,14.06
2022-10-01T07:08:13.127Z,14.02
2022-10-01T07:11:16.672Z,14.11
2022-10-01T07:14:20.487Z,14.12
2022-10-01T07:17:23.510Z,14.22
2022-10-01T07:20:26.218Z,14.24
2022-10-01T07:23:29.061Z,14.15
2022-10-01T07:26:44.818Z,14.17
2022-10-01T07:29:50.900Z,14.35
2022-10-01T07:32:54.404Z,14.33
2022-10-01T07:36:05.718Z,14.27
2022-10-01T07:39:10.404Z,14.20
2022-10-01T07:42:13.195Z,14.17
2022-10-01T07:45:15.821Z,14.25
2022-10-01T07:48:20.877Z,14.34
2022-10-01T07:51:24.569Z,14.47
2022-10-01T07:54:27.558Z,14.68
2022-10-01T07:57:30.451Z,14.72
2022-10-01T08:00:34.843Z,14.70
2022-10-01T08:03:37.843Z,14.68
2022-10-01T08:06:40.310Z,14.65
2022-10-01T08:09:43.356Z,14.66
2022-10-01T08:12:46.402Z,14.63
2022-10-01T08:15:54.702Z,14.62
2022-10-01T08:18:57.431Z,14.67
2022-10-01T08:22:00.431Z,14.67
2022-10-01T08:25:03.721Z,14.68
2022-10-01T08:28:08.331Z,14.71
2022-10-01T08:31:11.027Z,14.83
2022-10-01T08:34:14.673Z,14.84
2022-10-01T08:37:17.235Z,14.88
2022-10-01T08:40:21.781Z,15.04
2022-10-01T08:43:38.472Z,15.02
2022-10-01T08:46:41.644Z,15.02
2022-10-01T08:49:50.985Z,15.24
2022-10-01T08:53:02.491Z,15.21
2022-10-01T08:56:15.102Z,15.25
2022-10-01T08:59:43.792Z,15.36
2022-10-01T09:02:47.227Z,15.71
2022-10-01T09:06:15.372Z,16.06
2022-10-01T09:09:41.638Z,16.14
2022-10-01T09:13:04.988Z,16.04
2022-10-01T09:16:21.329Z,16.05
2022-10-01T09:19:55.089Z,15.88
2022-10-01T09:23:24.022Z,16.10
2022-10-01T09:26:26.959Z,16.23
2022-10-01T09:29:51.407Z,16.27
2022-10-01T09:33:00.141Z,16.24
2022-10-01T09:36:11.482Z,16.33
2022-10-01T09:39:22.007Z,16.30
2022-10-01T09:42:29.718Z,16.40
2022-10-01T09:45:32.602Z,16.42
2022-10-01T09:48:56.839Z,16.64
2022-10-01T09:52:15.285Z,16.63
2022-10-01T09:55:28.307Z,16.61
2022-10-01T09:58:35.096Z,17.20
2022-10-01T10:01:51.901Z,17.79
2022-10-01T10:05:04.904Z,18.09
2022-10-01T10:08:23.603Z,17.72
2022-10-01T10:11:29.996Z,18.81
2022-10-01T10:14:39.635Z,18.48
2022-10-01T10:17:44.341Z,19.48
2022-10-01T10:20:52.951Z,19.81
2022-10-01T10:23:59.138Z,19.50
2022-10-01T10:27:05.334Z,18.69
2022-10-01T10:30:17.369Z,19.99
2022-10-01T10:33:31.946Z,21.20
2022-10-01T10:36:37.392Z,19.94
2022-10-01T10:39:48.151Z,19.99
2022-10-01T10:42:55.765Z,20.29
2022-10-01T10:46:01.823Z,20.19
2022-10-01T10:49:21.886Z,19.44
2022-10-01T10:52:36.738Z,19.55
2022-10-01T10:55:40.122Z,19.09
2022-10-01T10:58:45.134Z,19.77
2022-10-01T11:01:49.552Z,19.57
2022-10-01T11:04:55.114Z,19.86
2022-10-01T11:08:04.530Z,20.82
2022-10-01T11:12:00.165Z,20.58
2022-10-01T11:15:11.345Z,20.57
2022-10-01T11:18:13.781Z,20.14
2022-10-01T11:21:48.608Z,20.23
2022-10-01T11:25:01.082Z,20.49
2022-10-01T11:28:22.680Z,20.42
2022-10-01T11:31:49.657Z,20.29
2022-10-01T11:35:05.123Z,19.82
2022-10-01T11:38:45.653Z,19.78
2022-10-01T11:41:56.687Z,20.48
2022-10-01T11:45:07.534Z,20.27
2022-10-01T11:48:25.215Z,20.33
2022-10-01T11:51:37.191Z,20.01
2022-10-01T11:55:20.898Z,19.73
2022-10-01T11:58:50.909Z,20.33
2022-10-01T12:02:04.189Z,20.18
2022-10-01T12:05:25.793Z,20.67
2022-10-01T12:08:37.643Z,21.26
2022-10-01T12:11:52.762Z,21.04
2022-10-01T12:15:09.087Z,20.59
2022-10-01T12:18:50.054Z,20.99
2022-10-01T12:22:04.634Z,21.21
2022-10-01T12:25:14.468Z,20.62
2022-10-01T12:28:26.505Z,20.84
2022-10-01T12:31:58.404Z,20.57
2022-10-01T12:35:22.824Z,20.35
2022-10-01T12:38:37.626Z,20.20
2022-10-01T12:42:09.364Z,20.17
2022-10-01T12:45:28.424Z,20.19
2022-10-01T12:48:54.822Z,20.13
2022-10-01T12:52:19.429Z,19.96
2022-10-01T12:55:44.777Z,19.79
2022-10-01T12:59:06.475Z,19.71
2022-10-01T13:02:39.449Z,19.69
2022-10-01T13:06:03.342Z,19.61
2022-10-01T13:09:38.268Z,19.97
2022-10-01T13:13:18.160Z,19.88
2022-10-01T13:16:25.226Z,19.86
2022-10-01T13:19:48.793Z,19.97
2022-10-01T13:23:18.682Z,19.78
2022-10-01T13:26:45.911Z,19.55
2022-10-01T13:29:59.981Z,19.51
2022-10-01T13:33:05.129Z,19.23
2022-10-01T13:36:10.621Z,19.22
2022-10-01T13:39:24.062Z,19.09
2022-10-01T13:42:37.657Z,18.90
2022-10-01T13:45:59.596Z,18.82
2022-10-01T13:49:25.420Z,19.11
2022-10-01T13:52:28.524Z,19.21
2022-10-01T13:55:32.291Z,19.30
2022-10-01T13:58:42.058Z,19.25
2022-10-01T14:01:44.621Z,19.33
2022-10-01T14:05:08.904Z,19.42
2022-10-01T14:08:44.233Z,19.21
2022-10-01T14:12:14.963Z,19.23
2022-10-01T14:15:58.682Z,19.35
2022-10-01T14:19:01.962Z,19.32
2022-10-01T14:22:25.588Z,19.31
2022-10-01T14:25:49.193Z,19.24
2022-10-01T14:29:00.653Z,19.08
2022-10-01T14:32:42.312Z,19.18
2022-10-01T14:35:59.645Z,19.21
2022-10-01T14:39:25.018Z,19.19
2022-10-01T14:42:27.837Z,19.22
2022-10-01T14:45:53.825Z,19.41
2022-10-01T14:49:00.943Z,19.72
2022-10-01T14:52:16.895Z,19.72
2022-10-01T14:55:23.296Z,19.43
2022-10-01T14:58:38.477Z,19.31
2022-10-01T15:01:43.583Z,19.39
2022-10-01T15:04:52.142Z,19.09
2022-10-01T15:07:54.782Z,18.74
2022-10-01T15:11:03.744Z,18.64
2022-10-01T15:14:11.306Z,18.71
2022-10-01T15:17:21.477Z,18.60
2022-10-01T15:20:27.378Z,18.62
2022-10-01T15:23:31.304Z,18.65
2022-10-01T15:26:34.373Z,18.34
2022-10-01T15:29:40.192Z,18.42
2022-10-01T15:32:48.397Z,18.25
2022-10-01T15:36:03.514Z,18.18
2022-10-01T15:39:30.614Z,18.24
2022-10-01T15:42:38.358Z,18.08
2022-10-01T15:45:42.116Z,18.19
2022-10-01T15:48:46.140Z,17.97
2022-10-01T15:52:18.927Z,17.84
2022-10-01T15:55:21.843Z,17.72
2022-10-01T15:58:35.927Z,18.01
2022-10-01T16:01:40.744Z,17.92
2022-10-01T16:04:44.103Z,17.56
2022-10-01T16:07:52.305Z,17.33
2022-10-01T16:11:24.439Z,17.33
2022-10-01T16:14:39.421Z,17.10
2022-10-01T16:17:56.757Z,16.96
2022-10-01T16:20:59.388Z,17.18
2022-10-01T16:24:02.599Z,17.11
2022-10-01T16:27:05.375Z,16.90
2022-10-01T16:30:08.223Z,16.77
2022-10-01T16:33:10.940Z,16.88
2022-10-01T16:36:20.222Z,16.82
2022-10-01T16:39:24.548Z,16.72
2022-10-01T16:42:27.576Z,16.74
2022-10-01T16:45:36.722Z,16.22
2022-10-01T16:48:41.565Z,16.38
2022-10-01T16:51:44.579Z,16.23
2022-10-01T16:54:48.630Z,16.27
2022-10-01T16:57:54.736Z,16.33
2022-10-01T17:01:06.614Z,16.29
2022-10-01T17:04:13.649Z,16.20
2022-10-01T17:07:16.846Z,16.00
2022-10-01T17:10:22.390Z,16.19
2022-10-01T17:13:26.553Z,16.17
2022-10-01T17:16:29.600Z,16.26
2022-10-01T17:19:32.953Z,16.24
2022-10-01T17:22:35.737Z,16.26
2022-10-01T17:25:42.576Z,16.17
2022-10-01T17:28:49.395Z,16.07
2022-10-01T17:31:53.613Z,16.19
2022-10-01T17:35:07.350Z,16.08
2022-10-01T17:38:11.538Z,15.93
2022-10-01T17:41:14.655Z,15.92
2022-10-01T17:44:18.049Z,15.86
2022-10-01T17:47:20.641Z,15.87
2022-10-01T17:50:24.385Z,15.81
2022-10-01T17:53:32.886Z,15.82
2022-10-01T17:56:42.382Z,15.56
2022-10-01T17:59:45.594Z,15.65
2022-10-01T18:02:56.048Z,15.73
2022-10-01T18:06:05.619Z,15.72
2022-10-01T18:09:11.082Z,15.63
2022-10-01T18:12:14.785Z,15.64
2022-10-01T18:15:22.640Z,15.44
2022-10-01T18:19:51.195Z,15.14
2022-10-01T18:21:52.342Z,15.05
2022-10-01T18:24:55.703Z,15.09
2022-10-01T18:27:58.358Z,15.24
2022-10-01T18:31:18.859Z,15.34
2022-10-01T18:34:43.805Z,15.33
2022-10-01T18:37:54.986Z,15.19
2022-10-01T18:41:18.207Z,15.14
2022-10-01T18:44:26.479Z,14.95
2022-10-01T18:48:13.594Z,15.12
2022-10-01T18:51:39.805Z,15.14
2022-10-01T18:54:42.764Z,15.00
2022-10-01T18:58:30.200Z,14.84
2022-10-01T19:01:54.150Z,14.92
2022-10-01T19:05:15.520Z,14.79
2022-10-01T19:08:24.258Z,15.02
2022-10-01T19:11:55.143Z,15.11
2022-10-01T19:15:12.859Z,15.20
2022-10-01T19:18:36.516Z,15.21
2022-10-01T19:22:01.730Z,15.20
2022-10-01T19:25:29.612Z,15.23
2022-10-01T19:29:21.466Z,15.09
2022-10-01T19:33:03.830Z,14.93
2022-10-01T19:36:24.514Z,14.81
2022-10-01T19:39:36.608Z,14.81
2022-10-01T19:42:44.607Z,14.83
2022-10-01T19:46:09.398Z,14.83
2022-10-01T19:49:25.578Z,14.82
2022-10-01T19:52:36.634Z,14.75
2022-10-01T19:55:43.006Z,14.93
2022-10-01T19:58:46.033Z,15.03
2022-10-01T20:02:12.108Z,14.90
2022-10-01T20:05:28.606Z,14.86
2022-10-01T20:08:34.237Z,14.87
2022-10-01T20:12:09.871Z,14.78
2022-10-01T20:15:46.439Z,14.80
2022-10-01T20:19:27.731Z,14.86
2022-10-01T20:23:04.457Z,14.99
2022-10-01T20:26:28.845Z,14.94
2022-10-01T20:29:55.253Z,14.67
2022-10-01T20:33:02.499Z,14.63
2022-10-01T20:36:14.269Z,14.67
2022-10-01T20:39:23.606Z,14.71
2022-10-01T20:42:35.927Z,14.69
2022-10-01T20:45:51.774Z,14.71
2022-10-01T20:49:04.167Z,14.58
2022-10-01T20:52:44.307Z,14.58
2022-10-01T20:56:02.064Z,14.71
2022-10-01T20:59:10.586Z,14.56
2022-10-01T21:02:43.784Z,14.65
2022-10-01T21:05:57.529Z,14.64
2022-10-01T21:09:11.623Z,14.78
2022-10-01T21:12:21.898Z,14.82
2022-10-01T21:15:36.589Z,14.63
2022-10-01T21:19:05.646Z,14.57
2022-10-01T21:22:37.362Z,14.51
2022-10-01T21:25:50.406Z,14.52
2022-10-01T21:29:05.148Z,14.29
2022-10-01T21:32:14.190Z,14.32
2022-10-01T21:35:24.781Z,14.27
2022-10-01T21:38:46.602Z,14.14
2022-10-01T21:42:16.254Z,14.05
2022-10-01T21:45:21.125Z,13.94
2022-10-01T21:48:42.965Z,13.95
2022-10-01T21:52:03.160Z,13.91
2022-10-01T21:55:45.033Z,13.83
2022-10-01T21:58:53.142Z,13.81
2022-10-01T22:02:26.958Z,13.73
2022-10-01T22:06:12.933Z,13.67
2022-10-01T22:09:32.911Z,13.67
2022-10-01T22:12:42.740Z,13.57
2022-10-01T22:15:52.754Z,13.44
2022-10-01T22:18:58.055Z,13.36
2022-10-01T22:22:26.094Z,13.31
2022-10-01T22:25:56.493Z,13.19
2022-10-01T22:29:02.067Z,13.13
2022-10-01T22:32:06.838Z,13.05
2022-10-01T22:35:18.278Z,13.04
2022-10-01T22:38:26.575Z,13.03
2022-10-01T22:41:58.134Z,12.98
2022-10-01T22:45:15.253Z,12.88
2022-10-01T22:48:20.849Z,12.68
2022-10-01T22:51:50.057Z,12.67
2022-10-01T22:55:05.303Z,12.67
2022-10-01T22:58:16.154Z,12.66
2022-10-01T23:01:29.368Z,12.69
2022-10-01T23:05:07.318Z,12.48
2022-10-01T23:08:47.908Z,12.52
2022-10-01T23:12:11.654Z,12.51
2022-10-01T23:15:36.077Z,12.44
2022-10-01T23:19:07.541Z,12.37
2022-10-01T23:22:25.344Z,12.42
2022-10-01T23:25:49.933Z,12.43
2022-10-01T23:28:58.221Z,12.44
2022-10-01T23:32:27.634Z,12.34
2022-10-01T23:35:42.867Z,12.35
2022-10-01T23:39:14.062Z,12.35
2022-10-01T23:42:38.587Z,12.54
2022-10-01T23:46:01.656Z,12.67
2022-10-01T23:49:16.622Z,12.73
2022-10-01T23:52:50.546Z,12.87
2022-10-01T23:56:28.139Z,13.08
